FDX225 OEDF-OTHH
Flight info
| Callsign | FDX225 |
|---|---|
| Flight time | 0h 59m |
| Altitude | 15000 |
| Route | LADNA1E/34L LADNA N318 HAYYA HAYYA2L |
| Aircraft | B737/M-NIL/C |
Departure
| Time | 2026-04-16 14:30 |
|---|---|
| Airport | King Fahd International Airport (OEDF) |
Arrival
| Time | 2026-04-16 15:29 |
|---|---|
| Airport | Hamad International Airport (OTHH) |
| Time | Latitude | Longitude | Altitude | Speed | Heading |
|---|---|---|---|---|---|
| 2026-04-16 14:00 | 26.47995 | 49.78960 | 79 ft | 0 kts | 75° |
| 2026-04-16 14:18 | 26.47992 | 49.78953 | 79 ft | 2 kts | 48° |
| 2026-04-16 14:18 | 26.47982 | 49.78941 | 79 ft | 2 kts | 53° |
| 2026-04-16 14:19 | 26.47973 | 49.78928 | 79 ft | 2 kts | 53° |
| 2026-04-16 14:19 | 26.47964 | 49.78915 | 79 ft | 2 kts | 52° |
| 2026-04-16 14:19 | 26.47958 | 49.78906 | 79 ft | 0 kts | 69° |
| 2026-04-16 14:19 | 26.47957 | 49.78899 | 79 ft | 0 kts | 126° |
| 2026-04-16 14:20 | 26.47961 | 49.78895 | 79 ft | 0 kts | 166° |
| 2026-04-16 14:20 | 26.47967 | 49.78894 | 79 ft | 0 kts | 163° |
| 2026-04-16 14:22 | 26.47966 | 49.78894 | 79 ft | 0 kts | 163° |
| 2026-04-16 14:23 | 26.47951 | 49.78900 | 79 ft | 4 kts | 163° |
| 2026-04-16 14:23 | 26.47909 | 49.78914 | 79 ft | 8 kts | 163° |
| 2026-04-16 14:23 | 26.47839 | 49.78936 | 79 ft | 12 kts | 164° |
| 2026-04-16 14:23 | 26.47745 | 49.78938 | 79 ft | 14 kts | 217° |
| 2026-04-16 14:24 | 26.47678 | 49.78844 | 79 ft | 16 kts | 199° |
| 2026-04-16 14:24 | 26.47561 | 49.78863 | 79 ft | 18 kts | 164° |
| 2026-04-16 14:24 | 26.47428 | 49.78904 | 79 ft | 20 kts | 165° |
| 2026-04-16 14:24 | 26.47283 | 49.78948 | 79 ft | 22 kts | 164° |
| 2026-04-16 14:25 | 26.47121 | 49.78999 | 79 ft | 25 kts | 165° |
| 2026-04-16 14:25 | 26.46944 | 49.79053 | 79 ft | 27 kts | 164° |
| 2026-04-16 14:25 | 26.46749 | 49.79113 | 79 ft | 30 kts | 163° |
| 2026-04-16 14:25 | 26.46542 | 49.79178 | 79 ft | 31 kts | 164° |
| 2026-04-16 14:26 | 26.46334 | 49.79243 | 79 ft | 28 kts | 164° |
| 2026-04-16 14:26 | 26.46308 | 49.79251 | 79 ft | 0 kts | 164° |
| 2026-04-16 14:26 | 26.46300 | 49.79253 | 79 ft | 3 kts | 165° |
| 2026-04-16 14:27 | 26.46258 | 49.79266 | 79 ft | 9 kts | 165° |
| 2026-04-16 14:27 | 26.46179 | 49.79290 | 79 ft | 14 kts | 163° |
| 2026-04-16 14:27 | 26.46058 | 49.79327 | 79 ft | 21 kts | 165° |
| 2026-04-16 14:27 | 26.45899 | 49.79375 | 79 ft | 27 kts | 165° |
| 2026-04-16 14:28 | 26.45695 | 49.79439 | 79 ft | 32 kts | 164° |
| 2026-04-16 14:28 | 26.45490 | 49.79485 | 79 ft | 26 kts | 202° |
| 2026-04-16 14:28 | 26.45427 | 49.79327 | 79 ft | 20 kts | 261° |
| 2026-04-16 14:28 | 26.45460 | 49.79201 | 79 ft | 15 kts | 312° |
| 2026-04-16 14:29 | 26.45524 | 49.79167 | 79 ft | 0 kts | 344° |
| 2026-04-16 14:29 | 26.45748 | 49.79098 | 79 ft | 72 kts | 345° |
| 2026-04-16 14:29 | 26.46477 | 49.78872 | 80 ft | 143 kts | 346° |
| 2026-04-16 14:30 | 26.47580 | 49.78489 | 300 ft | 184 kts | 349° |
| 2026-04-16 14:30 | 26.48931 | 49.78176 | 740 ft | 212 kts | 350° |
| 2026-04-16 14:30 | 26.50311 | 49.77753 | 1863 ft | 208 kts | 348° |
| 2026-04-16 14:30 | 26.51704 | 49.77311 | 2756 ft | 213 kts | 348° |
| 2026-04-16 14:31 | 26.53090 | 49.76867 | 3707 ft | 214 kts | 347° |
| 2026-04-16 14:31 | 26.54507 | 49.76413 | 4616 ft | 216 kts | 347° |
| 2026-04-16 14:31 | 26.55945 | 49.75953 | 5489 ft | 220 kts | 347° |
| 2026-04-16 14:31 | 26.57544 | 49.75587 | 5608 ft | 257 kts | 2° |
| 2026-04-16 14:32 | 26.59348 | 49.76015 | 6233 ft | 270 kts | 26° |
| 2026-04-16 14:32 | 26.60861 | 49.77214 | 7237 ft | 272 kts | 46° |
| 2026-04-16 14:32 | 26.61887 | 49.78931 | 8051 ft | 280 kts | 66° |
| 2026-04-16 14:32 | 26.62314 | 49.81027 | 8933 ft | 286 kts | 86° |
| 2026-04-16 14:33 | 26.62057 | 49.83223 | 9749 ft | 294 kts | 107° |
| 2026-04-16 14:33 | 26.61307 | 49.85334 | 10580 ft | 297 kts | 104° |
| 2026-04-16 14:33 | 26.61085 | 49.87613 | 11359 ft | 299 kts | 84° |
| 2026-04-16 14:33 | 26.61392 | 49.89922 | 12154 ft | 303 kts | 81° |
| 2026-04-16 14:34 | 26.61616 | 49.92250 | 12941 ft | 306 kts | 83° |
| 2026-04-16 14:34 | 26.61816 | 49.94614 | 13678 ft | 311 kts | 83° |
| 2026-04-16 14:34 | 26.62018 | 49.97040 | 14404 ft | 315 kts | 83° |
| 2026-04-16 14:34 | 26.62217 | 49.99450 | 15068 ft | 314 kts | 82° |
| 2026-04-16 14:35 | 26.62424 | 50.01949 | 15217 ft | 333 kts | 82° |
| 2026-04-16 14:35 | 26.62642 | 50.04589 | 15297 ft | 358 kts | 83° |
| 2026-04-16 14:35 | 26.62878 | 50.07466 | 15349 ft | 383 kts | 83° |
| 2026-04-16 14:35 | 26.63124 | 50.10508 | 15346 ft | 399 kts | 84° |
| 2026-04-16 14:36 | 26.62974 | 50.13600 | 15217 ft | 402 kts | 98° |
| 2026-04-16 14:36 | 26.62428 | 50.16650 | 15262 ft | 398 kts | 100° |
| 2026-04-16 14:36 | 26.61520 | 50.19529 | 15177 ft | 400 kts | 116° |
| 2026-04-16 14:36 | 26.59938 | 50.22078 | 15223 ft | 403 kts | 130° |
| 2026-04-16 14:37 | 26.57787 | 50.24137 | 15215 ft | 405 kts | 146° |
| 2026-04-16 14:37 | 26.55559 | 50.26001 | 15186 ft | 405 kts | 135° |
| 2026-04-16 14:37 | 26.53808 | 50.28381 | 15239 ft | 402 kts | 125° |
| 2026-04-16 14:37 | 26.52031 | 50.30745 | 15235 ft | 404 kts | 130° |
| 2026-04-16 14:38 | 26.50183 | 50.33087 | 15209 ft | 404 kts | 130° |
| 2026-04-16 14:38 | 26.48353 | 50.35398 | 15212 ft | 403 kts | 130° |
| 2026-04-16 14:38 | 26.46660 | 50.37869 | 15174 ft | 401 kts | 118° |
| 2026-04-16 14:38 | 26.45619 | 50.40564 | 15227 ft | 399 kts | 106° |
| 2026-04-16 14:39 | 26.44797 | 50.43496 | 15221 ft | 400 kts | 105° |
| 2026-04-16 14:39 | 26.43977 | 50.46446 | 15212 ft | 399 kts | 105° |
| 2026-04-16 14:39 | 26.43154 | 50.49394 | 15209 ft | 399 kts | 105° |
| 2026-04-16 14:39 | 26.42328 | 50.52346 | 15212 ft | 399 kts | 105° |
| 2026-04-16 14:40 | 26.41500 | 50.55299 | 15210 ft | 399 kts | 105° |
| 2026-04-16 14:40 | 26.40670 | 50.58255 | 15211 ft | 399 kts | 105° |
| 2026-04-16 14:40 | 26.39846 | 50.61176 | 15211 ft | 399 kts | 105° |
| 2026-04-16 14:40 | 26.39001 | 50.64162 | 15211 ft | 399 kts | 105° |
| 2026-04-16 14:41 | 26.38175 | 50.67075 | 15210 ft | 399 kts | 106° |
| 2026-04-16 14:41 | 26.37337 | 50.70029 | 15210 ft | 399 kts | 106° |
| 2026-04-16 14:41 | 26.36508 | 50.72947 | 15210 ft | 399 kts | 106° |
| 2026-04-16 14:41 | 26.35670 | 50.75893 | 15210 ft | 399 kts | 106° |
| 2026-04-16 14:42 | 26.34822 | 50.78869 | 15210 ft | 399 kts | 106° |
| 2026-04-16 14:42 | 26.33984 | 50.81806 | 15210 ft | 399 kts | 106° |
| 2026-04-16 14:42 | 26.33144 | 50.84748 | 15211 ft | 399 kts | 106° |
| 2026-04-16 14:42 | 26.32312 | 50.87662 | 15211 ft | 399 kts | 106° |
| 2026-04-16 14:43 | 26.31463 | 50.90630 | 15211 ft | 399 kts | 106° |
| 2026-04-16 14:43 | 26.30609 | 50.93534 | 15203 ft | 400 kts | 109° |
| 2026-04-16 14:43 | 26.29390 | 50.96337 | 15237 ft | 400 kts | 116° |
| 2026-04-16 14:43 | 26.28056 | 50.99093 | 15217 ft | 403 kts | 117° |
| 2026-04-16 14:44 | 26.26712 | 51.01800 | 15219 ft | 401 kts | 117° |
| 2026-04-16 14:44 | 26.25359 | 51.04501 | 15206 ft | 401 kts | 118° |
| 2026-04-16 14:44 | 26.24010 | 51.07187 | 15214 ft | 401 kts | 118° |
| 2026-04-16 14:44 | 26.22653 | 51.09890 | 15210 ft | 401 kts | 118° |
| 2026-04-16 14:45 | 26.21280 | 51.12622 | 15211 ft | 402 kts | 118° |
| 2026-04-16 14:45 | 26.19935 | 51.15297 | 15211 ft | 401 kts | 118° |
| 2026-04-16 14:45 | 26.18562 | 51.18025 | 15211 ft | 401 kts | 118° |
| 2026-04-16 14:45 | 26.17192 | 51.20746 | 15211 ft | 401 kts | 118° |
| 2026-04-16 14:46 | 26.15847 | 51.23415 | 15211 ft | 401 kts | 118° |
| 2026-04-16 14:46 | 26.14469 | 51.26147 | 15211 ft | 401 kts | 118° |
| 2026-04-16 14:46 | 26.13102 | 51.28857 | 15212 ft | 401 kts | 118° |
| 2026-04-16 14:46 | 26.11745 | 51.31546 | 15212 ft | 401 kts | 118° |
| 2026-04-16 14:47 | 26.10380 | 51.34248 | 15212 ft | 401 kts | 118° |
| 2026-04-16 14:47 | 26.09010 | 51.36960 | 15212 ft | 401 kts | 118° |
| 2026-04-16 14:47 | 26.07661 | 51.39627 | 15212 ft | 401 kts | 118° |
| 2026-04-16 14:47 | 26.06292 | 51.42332 | 15212 ft | 402 kts | 118° |
| 2026-04-16 14:48 | 26.04919 | 51.45043 | 15212 ft | 402 kts | 118° |
| 2026-04-16 14:48 | 26.03545 | 51.47754 | 15212 ft | 402 kts | 118° |
| 2026-04-16 14:48 | 26.02186 | 51.50433 | 15212 ft | 402 kts | 118° |
| 2026-04-16 14:48 | 26.00818 | 51.53131 | 15212 ft | 402 kts | 118° |
| 2026-04-16 14:49 | 25.99450 | 51.55824 | 15212 ft | 402 kts | 118° |
| 2026-04-16 14:49 | 25.98089 | 51.58503 | 15212 ft | 402 kts | 118° |
| 2026-04-16 14:49 | 25.96719 | 51.61198 | 15212 ft | 402 kts | 118° |
| 2026-04-16 14:49 | 25.95339 | 51.63911 | 15212 ft | 402 kts | 118° |
| 2026-04-16 14:50 | 25.93980 | 51.66582 | 15212 ft | 402 kts | 118° |
| 2026-04-16 14:50 | 25.92605 | 51.69281 | 15212 ft | 402 kts | 118° |
| 2026-04-16 14:50 | 25.91218 | 51.72002 | 15212 ft | 402 kts | 118° |
| 2026-04-16 14:50 | 25.89905 | 51.74656 | 15212 ft | 401 kts | 117° |
| 2026-04-16 14:51 | 25.88572 | 51.77376 | 15208 ft | 401 kts | 117° |
| 2026-04-16 14:51 | 25.87228 | 51.80121 | 15209 ft | 401 kts | 117° |
| 2026-04-16 14:51 | 25.85909 | 51.82816 | 15209 ft | 401 kts | 117° |
| 2026-04-16 14:51 | 25.84577 | 51.85535 | 15209 ft | 401 kts | 117° |
| 2026-04-16 14:53 | 25.76259 | 52.05054 | 15209 ft | 401 kts | 114° |
| 2026-04-16 14:53 | 25.75071 | 52.07872 | 15209 ft | 401 kts | 114° |
| 2026-04-16 14:54 | 25.73895 | 52.10663 | 15209 ft | 401 kts | 114° |
| 2026-04-16 14:54 | 25.72717 | 52.13454 | 15209 ft | 401 kts | 114° |
| 2026-04-16 14:54 | 25.71544 | 52.16234 | 15209 ft | 401 kts | 114° |
| 2026-04-16 14:54 | 25.70355 | 52.19047 | 15209 ft | 401 kts | 114° |
| 2026-04-16 14:55 | 25.69179 | 52.21829 | 15210 ft | 401 kts | 114° |
| 2026-04-16 14:55 | 25.68002 | 52.24613 | 15210 ft | 401 kts | 114° |
| 2026-04-16 14:55 | 25.66828 | 52.27387 | 15210 ft | 401 kts | 114° |
| 2026-04-16 14:55 | 25.65639 | 52.30196 | 15210 ft | 401 kts | 114° |
| 2026-04-16 14:56 | 25.64462 | 52.32972 | 15210 ft | 401 kts | 114° |
| 2026-04-16 14:56 | 25.63277 | 52.35767 | 15210 ft | 401 kts | 114° |
| 2026-04-16 14:56 | 25.62098 | 52.38543 | 15210 ft | 401 kts | 114° |
| 2026-04-16 14:56 | 25.60769 | 52.41263 | 15216 ft | 401 kts | 117° |
| 2026-04-16 14:57 | 25.59405 | 52.43978 | 15211 ft | 402 kts | 117° |
| 2026-04-16 14:57 | 25.58043 | 52.46679 | 15212 ft | 401 kts | 117° |
| 2026-04-16 14:57 | 25.56698 | 52.49343 | 15209 ft | 401 kts | 117° |
| 2026-04-16 14:57 | 25.55335 | 52.52042 | 15211 ft | 401 kts | 117° |
| 2026-04-16 14:58 | 25.53968 | 52.54748 | 15210 ft | 401 kts | 117° |
| 2026-04-16 14:58 | 25.50444 | 52.59405 | 15228 ft | 405 kts | 143° |
| 2026-04-16 14:58 | 25.47963 | 52.60885 | 15204 ft | 406 kts | 159° |
| 2026-04-16 14:59 | 25.45244 | 52.61614 | 15215 ft | 406 kts | 173° |
| 2026-04-16 14:59 | 25.42420 | 52.61715 | 15237 ft | 406 kts | 181° |
| 2026-04-16 14:59 | 25.39670 | 52.61243 | 15192 ft | 404 kts | 197° |
| 2026-04-16 14:59 | 25.37129 | 52.60005 | 15216 ft | 402 kts | 212° |
| 2026-04-16 15:00 | 25.34937 | 52.58078 | 15216 ft | 399 kts | 227° |
| 2026-04-16 15:00 | 25.33286 | 52.55618 | 15209 ft | 396 kts | 243° |
| 2026-04-16 15:00 | 25.32281 | 52.52800 | 15215 ft | 393 kts | 258° |
| 2026-04-16 15:00 | 25.31977 | 52.49853 | 15212 ft | 389 kts | 273° |
| 2026-04-16 15:01 | 25.32376 | 52.46937 | 15213 ft | 386 kts | 288° |
| 2026-04-16 15:01 | 25.33454 | 52.44249 | 15213 ft | 383 kts | 303° |
| 2026-04-16 15:01 | 25.35131 | 52.41989 | 15213 ft | 381 kts | 318° |
| 2026-04-16 15:01 | 25.37276 | 52.40267 | 15226 ft | 379 kts | 326° |
| 2026-04-16 15:02 | 25.39217 | 52.38312 | 15193 ft | 382 kts | 310° |
| 2026-04-16 15:02 | 25.40680 | 52.35847 | 15233 ft | 383 kts | 301° |
| 2026-04-16 15:02 | 25.41983 | 52.33305 | 15232 ft | 384 kts | 301° |
| 2026-04-16 15:02 | 25.43277 | 52.30736 | 15209 ft | 383 kts | 300° |
| 2026-04-16 15:03 | 25.44571 | 52.28154 | 15211 ft | 383 kts | 300° |
| 2026-04-16 15:03 | 25.45861 | 52.25577 | 15212 ft | 383 kts | 300° |
| 2026-04-16 15:03 | 25.47156 | 52.22987 | 15210 ft | 383 kts | 300° |
| 2026-04-16 15:03 | 25.48432 | 52.20432 | 15211 ft | 383 kts | 300° |
| 2026-04-16 15:04 | 25.49725 | 52.17843 | 15210 ft | 383 kts | 300° |
| 2026-04-16 15:04 | 25.51012 | 52.15264 | 15210 ft | 383 kts | 300° |
| 2026-04-16 15:04 | 25.52294 | 52.12694 | 15210 ft | 383 kts | 300° |
| 2026-04-16 15:04 | 25.53577 | 52.10120 | 15210 ft | 383 kts | 300° |
| 2026-04-16 15:05 | 25.54872 | 52.07520 | 15210 ft | 383 kts | 300° |
| 2026-04-16 15:05 | 25.56142 | 52.04970 | 15210 ft | 383 kts | 300° |
| 2026-04-16 15:05 | 25.57427 | 52.02387 | 15210 ft | 383 kts | 300° |
| 2026-04-16 15:05 | 25.58504 | 51.99699 | 15173 ft | 386 kts | 288° |
| 2026-04-16 15:06 | 25.58910 | 51.96785 | 15181 ft | 374 kts | 273° |
| 2026-04-16 15:06 | 25.58620 | 51.93994 | 15107 ft | 354 kts | 257° |
| 2026-04-16 15:06 | 25.57881 | 51.91536 | 14942 ft | 325 kts | 253° |
| 2026-04-16 15:06 | 25.57085 | 51.89308 | 14814 ft | 302 kts | 242° |
| 2026-04-16 15:07 | 25.55764 | 51.87531 | 14865 ft | 303 kts | 221° |
| 2026-04-16 15:07 | 25.54053 | 51.86087 | 15075 ft | 312 kts | 221° |
| 2026-04-16 15:07 | 25.52386 | 51.84531 | 15185 ft | 316 kts | 223° |
| 2026-04-16 15:07 | 25.50790 | 51.82872 | 15143 ft | 316 kts | 233° |
| 2026-04-16 15:08 | 25.49583 | 51.80890 | 15052 ft | 311 kts | 242° |
| 2026-04-16 15:08 | 25.48793 | 51.78687 | 14915 ft | 305 kts | 262° |
| 2026-04-16 15:08 | 25.48704 | 51.76393 | 14849 ft | 300 kts | 276° |
| 2026-04-16 15:08 | 25.48700 | 51.74069 | 14766 ft | 302 kts | 270° |
| 2026-04-16 15:09 | 25.48601 | 51.71736 | 14673 ft | 303 kts | 269° |
| 2026-04-16 15:09 | 25.48492 | 51.69424 | 14583 ft | 302 kts | 269° |
| 2026-04-16 15:09 | 25.48382 | 51.67102 | 14500 ft | 301 kts | 269° |
| 2026-04-16 15:09 | 25.48272 | 51.64812 | 14425 ft | 301 kts | 269° |
| 2026-04-16 15:10 | 25.48160 | 51.62485 | 14355 ft | 301 kts | 269° |
| 2026-04-16 15:10 | 25.48049 | 51.60181 | 14293 ft | 301 kts | 269° |
| 2026-04-16 15:10 | 25.47954 | 51.58221 | 14244 ft | 301 kts | 269° |
| 2026-04-16 15:10 | 25.47831 | 51.55690 | 14188 ft | 301 kts | 269° |
| 2026-04-16 15:11 | 25.47719 | 51.53386 | 14143 ft | 300 kts | 269° |
| 2026-04-16 15:11 | 25.47606 | 51.51073 | 14068 ft | 301 kts | 269° |
| 2026-04-16 15:11 | 25.47492 | 51.48747 | 13949 ft | 301 kts | 269° |
| 2026-04-16 15:11 | 25.47378 | 51.46435 | 13789 ft | 301 kts | 269° |
| 2026-04-16 15:12 | 25.47255 | 51.44157 | 13526 ft | 302 kts | 266° |
| 2026-04-16 15:12 | 25.46676 | 51.41898 | 12908 ft | 311 kts | 245° |
| 2026-04-16 15:12 | 25.45431 | 51.39933 | 12497 ft | 312 kts | 226° |
| 2026-04-16 15:12 | 25.43710 | 51.38531 | 12167 ft | 310 kts | 207° |
| 2026-04-16 15:13 | 25.41693 | 51.37819 | 11899 ft | 304 kts | 188° |
| 2026-04-16 15:13 | 25.39607 | 51.37874 | 11674 ft | 296 kts | 168° |
| 2026-04-16 15:13 | 25.37744 | 51.38654 | 11472 ft | 288 kts | 148° |
| 2026-04-16 15:13 | 25.36271 | 51.40058 | 11351 ft | 277 kts | 128° |
| 2026-04-16 15:14 | 25.35093 | 51.41710 | 11396 ft | 275 kts | 127° |
| 2026-04-16 15:14 | 25.33698 | 51.43154 | 11457 ft | 281 kts | 148° |
| 2026-04-16 15:14 | 25.31906 | 51.44047 | 11594 ft | 285 kts | 158° |
| 2026-04-16 15:14 | 25.30058 | 51.44854 | 11676 ft | 287 kts | 158° |
| 2026-04-16 15:15 | 25.28222 | 51.45663 | 11773 ft | 286 kts | 158° |
| 2026-04-16 15:15 | 25.26351 | 51.46454 | 11875 ft | 286 kts | 159° |
| 2026-04-16 15:15 | 25.24492 | 51.47240 | 11969 ft | 287 kts | 159° |
| 2026-04-16 15:15 | 25.22630 | 51.48028 | 11873 ft | 285 kts | 159° |
| 2026-04-16 15:16 | 25.20831 | 51.48787 | 11740 ft | 276 kts | 159° |
| 2026-04-16 15:16 | 25.19049 | 51.49538 | 11562 ft | 269 kts | 159° |
| 2026-04-16 15:16 | 25.17330 | 51.50259 | 11344 ft | 265 kts | 159° |
| 2026-04-16 15:16 | 25.15628 | 51.50971 | 11184 ft | 258 kts | 159° |
| 2026-04-16 15:17 | 25.13971 | 51.51663 | 11193 ft | 253 kts | 159° |
| 2026-04-16 15:17 | 25.12316 | 51.52353 | 11227 ft | 257 kts | 159° |
| 2026-04-16 15:17 | 25.10647 | 51.53050 | 11223 ft | 261 kts | 159° |
| 2026-04-16 15:17 | 25.08937 | 51.53765 | 11179 ft | 262 kts | 159° |
| 2026-04-16 15:18 | 25.07225 | 51.54479 | 10947 ft | 264 kts | 159° |
| 2026-04-16 15:18 | 25.05538 | 51.55181 | 10696 ft | 261 kts | 159° |
| 2026-04-16 15:18 | 25.03830 | 51.55889 | 10438 ft | 258 kts | 159° |
| 2026-04-16 15:18 | 25.02174 | 51.56573 | 10165 ft | 256 kts | 159° |
| 2026-04-16 15:19 | 25.00502 | 51.57260 | 9883 ft | 255 kts | 159° |
| 2026-04-16 15:19 | 24.98852 | 51.57935 | 9485 ft | 258 kts | 159° |
| 2026-04-16 15:19 | 24.97169 | 51.58620 | 9095 ft | 258 kts | 159° |
| 2026-04-16 15:19 | 24.95467 | 51.59308 | 8700 ft | 259 kts | 159° |
| 2026-04-16 15:20 | 24.93782 | 51.59985 | 8310 ft | 259 kts | 159° |
| 2026-04-16 15:20 | 24.92094 | 51.60671 | 7927 ft | 259 kts | 154° |
| 2026-04-16 15:20 | 24.90796 | 51.61937 | 7485 ft | 252 kts | 116° |
| 2026-04-16 15:20 | 24.90458 | 51.63763 | 7109 ft | 244 kts | 80° |
| 2026-04-16 15:21 | 24.90941 | 51.65505 | 6788 ft | 240 kts | 69° |
| 2026-04-16 15:21 | 24.91521 | 51.67245 | 6291 ft | 246 kts | 69° |
| 2026-04-16 15:21 | 24.92126 | 51.69035 | 5690 ft | 254 kts | 69° |
| 2026-04-16 15:21 | 24.92750 | 51.70859 | 5121 ft | 259 kts | 68° |
| 2026-04-16 15:22 | 24.93844 | 51.72433 | 4436 ft | 267 kts | 35° |
| 2026-04-16 15:22 | 24.95596 | 51.73045 | 3805 ft | 276 kts | 3° |
| 2026-04-16 15:22 | 24.97468 | 51.72530 | 3191 ft | 283 kts | 339° |
| 2026-04-16 15:22 | 24.99276 | 51.71778 | 2659 ft | 281 kts | 353° |
| 2026-04-16 15:23 | 25.01218 | 51.71626 | 2173 ft | 275 kts | 1° |
| 2026-04-16 15:23 | 25.03020 | 51.71571 | 2342 ft | 250 kts | 1° |
| 2026-04-16 15:23 | 25.04694 | 51.71515 | 2299 ft | 235 kts | 1° |
| 2026-04-16 15:23 | 25.06281 | 51.71455 | 2276 ft | 220 kts | 1° |
| 2026-04-16 15:24 | 25.07686 | 51.70963 | 2212 ft | 212 kts | 331° |
| 2026-04-16 15:24 | 25.08870 | 51.70149 | 2296 ft | 195 kts | 338° |
| 2026-04-16 15:24 | 25.10093 | 51.69546 | 2334 ft | 194 kts | 341° |
| 2026-04-16 15:24 | 25.11360 | 51.68957 | 2343 ft | 198 kts | 341° |
| 2026-04-16 15:25 | 25.12625 | 51.68385 | 2343 ft | 199 kts | 342° |
| 2026-04-16 15:25 | 25.13916 | 51.67809 | 2341 ft | 198 kts | 342° |
| 2026-04-16 15:25 | 25.15199 | 51.67242 | 2170 ft | 203 kts | 342° |
| 2026-04-16 15:25 | 25.16508 | 51.66665 | 1913 ft | 200 kts | 342° |
| 2026-04-16 15:26 | 25.17767 | 51.66108 | 1677 ft | 194 kts | 342° |
| 2026-04-16 15:26 | 25.19015 | 51.65558 | 1405 ft | 189 kts | 342° |
| 2026-04-16 15:26 | 25.20197 | 51.65036 | 1165 ft | 178 kts | 343° |
| 2026-04-16 15:26 | 25.21307 | 51.64547 | 895 ft | 168 kts | 343° |
| 2026-04-16 15:27 | 25.22350 | 51.64087 | 656 ft | 158 kts | 343° |
| 2026-04-16 15:27 | 25.23348 | 51.63649 | 406 ft | 151 kts | 343° |
| 2026-04-16 15:27 | 25.24306 | 51.63207 | 285 ft | 146 kts | 342° |
| 2026-04-16 15:27 | 25.25224 | 51.62800 | 83 ft | 143 kts | 345° |
| 2026-04-16 15:28 | 25.26088 | 51.62447 | 8 ft | 109 kts | 341° |
| 2026-04-16 15:28 | 25.26605 | 51.62217 | 8 ft | 67 kts | 338° |
| 2026-04-16 15:28 | 25.27026 | 51.62028 | 8 ft | 64 kts | 339° |
| 2026-04-16 15:28 | 25.27442 | 51.61847 | 8 ft | 64 kts | 340° |
| 2026-04-16 15:29 | 25.27849 | 51.61664 | 8 ft | 61 kts | 337° |
| 2026-04-16 15:29 | 25.28076 | 51.61492 | 8 ft | 0 kts | 310° |
| 2026-04-16 15:30 | 25.28085 | 51.61480 | 8 ft | 6 kts | 310° |
| 2026-04-16 15:30 | 25.28132 | 51.61416 | 8 ft | 12 kts | 309° |
| 2026-04-16 15:30 | 25.28194 | 51.61327 | 8 ft | 16 kts | 299° |
| 2026-04-16 15:30 | 25.28196 | 51.61263 | 8 ft | 4 kts | 245° |
| 2026-04-16 15:31 | 25.28164 | 51.61235 | 8 ft | 7 kts | 194° |
| 2026-04-16 15:31 | 25.28127 | 51.61235 | 8 ft | 0 kts | 167° |
| 2026-04-16 15:32 | 25.28117 | 51.61239 | 8 ft | 3 kts | 162° |
| 2026-04-16 15:32 | 25.28081 | 51.61254 | 8 ft | 8 kts | 158° |
| 2026-04-16 15:33 | 25.28010 | 51.61278 | 8 ft | 11 kts | 180° |
| 2026-04-16 15:33 | 25.27963 | 51.61248 | 8 ft | 0 kts | 250° |
| 2026-04-16 15:33 | 25.27962 | 51.61245 | 8 ft | 2 kts | 252° |
| 2026-04-16 15:33 | 25.27949 | 51.61204 | 8 ft | 9 kts | 248° |
| 2026-04-16 15:34 | 25.27915 | 51.61115 | 8 ft | 15 kts | 247° |
| 2026-04-16 15:34 | 25.27894 | 51.61057 | 9 ft | 0 kts | 250° |